sensor_id;sensor_type;location;lat;lon;timestamp;temperature;humidity
17815;DHT22;9031;50.974;11.330;2023-05-19T00:01:44;9.70;99.90
17815;DHT22;9031;50.974;11.330;2023-05-19T00:04:13;9.70;99.90
17815;DHT22;9031;50.974;11.330;2023-05-19T00:06:39;9.40;99.90
17815;DHT22;9031;50.974;11.330;2023-05-19T00:09:08;9.20;99.90
17815;DHT22;9031;50.974;11.330;2023-05-19T00:11:34;9.30;99.90
17815;DHT22;9031;50.974;11.330;2023-05-19T00:14:01;9.40;99.90
17815;DHT22;9031;50.974;11.330;2023-05-19T00:16:29;9.40;99.90
17815;DHT22;9031;50.974;11.330;2023-05-19T00:18:57;9.30;99.90
17815;DHT22;9031;50.974;11.330;2023-05-19T00:21:24;9.40;99.90
17815;DHT22;9031;50.974;11.330;2023-05-19T00:23:50;9.40;99.90
17815;DHT22;9031;50.974;11.330;2023-05-19T00:26:15;9.50;99.90
17815;DHT22;9031;50.974;11.330;2023-05-19T00:28:41;9.60;99.90
17815;DHT22;9031;50.974;11.330;2023-05-19T00:31:06;9.10;99.90
17815;DHT22;9031;50.974;11.330;2023-05-19T00:33:32;8.90;99.90
17815;DHT22;9031;50.974;11.330;2023-05-19T00:36:01;8.80;99.90
17815;DHT22;9031;50.974;11.330;2023-05-19T00:38:31;8.70;99.90
17815;DHT22;9031;50.974;11.330;2023-05-19T00:40:57;8.60;99.90
17815;DHT22;9031;50.974;11.330;2023-05-19T00:43:22;8.60;99.90
17815;DHT22;9031;50.974;11.330;2023-05-19T00:45:48;8.50;99.90
17815;DHT22;9031;50.974;11.330;2023-05-19T00:48:13;8.60;99.90
17815;DHT22;9031;50.974;11.330;2023-05-19T00:50:39;8.50;99.90
17815;DHT22;9031;50.974;11.330;2023-05-19T00:53:05;8.60;99.90
17815;DHT22;9031;50.974;11.330;2023-05-19T00:55:31;8.60;99.90
17815;DHT22;9031;50.974;11.330;2023-05-19T00:57:57;8.80;99.90
17815;DHT22;9031;50.974;11.330;2023-05-19T01:00:23;8.90;99.90
17815;DHT22;9031;50.974;11.330;2023-05-19T01:02:49;8.60;99.90
17815;DHT22;9031;50.974;11.330;2023-05-19T01:05:15;8.60;99.90
17815;DHT22;9031;50.974;11.330;2023-05-19T01:07:41;8.70;99.90
17815;DHT22;9031;50.974;11.330;2023-05-19T01:10:08;8.70;99.90
17815;DHT22;9031;50.974;11.330;2023-05-19T01:12:34;8.90;99.90
17815;DHT22;9031;50.974;11.330;2023-05-19T01:15:02;9.00;99.90
17815;DHT22;9031;50.974;11.330;2023-05-19T01:17:49;9.10;99.90
17815;DHT22;9031;50.974;11.330;2023-05-19T01:20:29;9.00;99.90
17815;DHT22;9031;50.974;11.330;2023-05-19T01:26:38;8.80;99.90
17815;DHT22;9031;50.974;11.330;2023-05-19T01:29:39;8.90;99.90
17815;DHT22;9031;50.974;11.330;2023-05-19T01:32:06;8.80;99.90
17815;DHT22;9031;50.974;11.330;2023-05-19T01:34:38;8.80;99.90
17815;DHT22;9031;50.974;11.330;2023-05-19T01:37:06;8.90;99.90
17815;DHT22;9031;50.974;11.330;2023-05-19T01:39:34;8.80;99.90
17815;DHT22;9031;50.974;11.330;2023-05-19T01:42:00;8.70;99.90
17815;DHT22;9031;50.974;11.330;2023-05-19T01:44:26;8.70;99.90
17815;DHT22;9031;50.974;11.330;2023-05-19T01:46:53;8.60;99.90
17815;DHT22;9031;50.974;11.330;2023-05-19T01:49:19;8.70;99.90
17815;DHT22;9031;50.974;11.330;2023-05-19T01:51:44;8.60;99.90
17815;DHT22;9031;50.974;11.330;2023-05-19T01:54:10;8.60;99.90
17815;DHT22;9031;50.974;11.330;2023-05-19T01:59:59;8.60;99.90
17815;DHT22;9031;50.974;11.330;2023-05-19T02:05:21;8.50;99.90
17815;DHT22;9031;50.974;11.330;2023-05-19T02:08:05;8.50;99.90
17815;DHT22;9031;50.974;11.330;2023-05-19T02:10:32;8.40;99.90
17815;DHT22;9031;50.974;11.330;2023-05-19T02:13:03;8.40;99.90
17815;DHT22;9031;50.974;11.330;2023-05-19T02:15:40;8.30;99.90
17815;DHT22;9031;50.974;11.330;2023-05-19T02:18:09;8.20;99.90
17815;DHT22;9031;50.974;11.330;2023-05-19T02:20:36;8.30;99.90
17815;DHT22;9031;50.974;11.330;2023-05-19T02:23:01;8.20;99.90
17815;DHT22;9031;50.974;11.330;2023-05-19T02:25:27;8.10;99.90
17815;DHT22;9031;50.974;11.330;2023-05-19T02:27:53;8.10;99.90
17815;DHT22;9031;50.974;11.330;2023-05-19T02:30:19;8.10;99.90
17815;DHT22;9031;50.974;11.330;2023-05-19T02:32:44;8.10;99.90
17815;DHT22;9031;50.974;11.330;2023-05-19T02:35:13;8.10;99.90
17815;DHT22;9031;50.974;11.330;2023-05-19T02:37:38;7.90;99.90
17815;DHT22;9031;50.974;11.330;2023-05-19T02:40:04;7.60;99.90
17815;DHT22;9031;50.974;11.330;2023-05-19T02:42:30;7.50;99.90
17815;DHT22;9031;50.974;11.330;2023-05-19T02:44:56;7.30;99.90
17815;DHT22;9031;50.974;11.330;2023-05-19T02:47:21;7.30;99.90
17815;DHT22;9031;50.974;11.330;2023-05-19T02:49:47;7.20;99.90
17815;DHT22;9031;50.974;11.330;2023-05-19T02:52:12;7.30;99.90
17815;DHT22;9031;50.974;11.330;2023-05-19T02:54:38;7.50;99.90
17815;DHT22;9031;50.974;11.330;2023-05-19T02:57:03;7.60;99.90
17815;DHT22;9031;50.974;11.330;2023-05-19T02:59:29;7.60;99.90
17815;DHT22;9031;50.974;11.330;2023-05-19T03:02:00;7.60;99.90
17815;DHT22;9031;50.974;11.330;2023-05-19T03:04:26;7.50;99.90
17815;DHT22;9031;50.974;11.330;2023-05-19T03:06:52;7.50;99.90
17815;DHT22;9031;50.974;11.330;2023-05-19T03:09:18;7.40;99.90
17815;DHT22;9031;50.974;11.330;2023-05-19T03:11:44;7.20;99.90
17815;DHT22;9031;50.974;11.330;2023-05-19T03:14:09;7.30;99.90
17815;DHT22;9031;50.974;11.330;2023-05-19T03:16:36;7.30;99.90
17815;DHT22;9031;50.974;11.330;2023-05-19T03:19:01;7.30;99.90
17815;DHT22;9031;50.974;11.330;2023-05-19T03:21:27;7.30;99.90
17815;DHT22;9031;50.974;11.330;2023-05-19T03:23:53;7.30;99.90
17815;DHT22;9031;50.974;11.330;2023-05-19T03:26:19;7.10;99.90
17815;DHT22;9031;50.974;11.330;2023-05-19T03:28:44;7.10;99.90
17815;DHT22;9031;50.974;11.330;2023-05-19T03:31:10;7.10;99.90
17815;DHT22;9031;50.974;11.330;2023-05-19T03:33:35;7.00;99.90
17815;DHT22;9031;50.974;11.330;2023-05-19T03:36:01;7.00;99.90
17815;DHT22;9031;50.974;11.330;2023-05-19T03:38:26;7.20;99.90
17815;DHT22;9031;50.974;11.330;2023-05-19T03:40:52;7.50;99.90
17815;DHT22;9031;50.974;11.330;2023-05-19T03:43:18;7.60;99.90
17815;DHT22;9031;50.974;11.330;2023-05-19T03:45:43;7.70;99.90
17815;DHT22;9031;50.974;11.330;2023-05-19T03:48:09;7.70;99.90
17815;DHT22;9031;50.974;11.330;2023-05-19T03:50:34;7.60;99.90
17815;DHT22;9031;50.974;11.330;2023-05-19T03:53:02;7.70;99.90
17815;DHT22;9031;50.974;11.330;2023-05-19T03:55:28;7.50;99.90
17815;DHT22;9031;50.974;11.330;2023-05-19T03:57:54;7.30;99.90
17815;DHT22;9031;50.974;11.330;2023-05-19T04:00:20;7.20;99.90
17815;DHT22;9031;50.974;11.330;2023-05-19T04:02:46;7.10;99.90
17815;DHT22;9031;50.974;11.330;2023-05-19T04:05:11;7.30;99.90
17815;DHT22;9031;50.974;11.330;2023-05-19T04:07:37;7.50;99.90
17815;DHT22;9031;50.974;11.330;2023-05-19T04:10:04;7.70;99.90
17815;DHT22;9031;50.974;11.330;2023-05-19T04:12:29;7.70;99.90
17815;DHT22;9031;50.974;11.330;2023-05-19T04:14:55;7.20;99.90
17815;DHT22;9031;50.974;11.330;2023-05-19T04:17:20;6.80;99.90
17815;DHT22;9031;50.974;11.330;2023-05-19T04:19:47;6.80;99.90
17815;DHT22;9031;50.974;11.330;2023-05-19T04:22:13;6.90;99.90
17815;DHT22;9031;50.974;11.330;2023-05-19T04:24:38;6.90;99.90
17815;DHT22;9031;50.974;11.330;2023-05-19T04:27:04;7.10;99.90
17815;DHT22;9031;50.974;11.330;2023-05-19T04:29:30;7.30;99.90
17815;DHT22;9031;50.974;11.330;2023-05-19T04:31:56;7.40;99.90
17815;DHT22;9031;50.974;11.330;2023-05-19T04:34:22;7.60;99.90
17815;DHT22;9031;50.974;11.330;2023-05-19T04:36:47;7.40;99.90
17815;DHT22;9031;50.974;11.330;2023-05-19T04:39:13;7.40;99.90
17815;DHT22;9031;50.974;11.330;2023-05-19T04:41:39;7.50;99.90
17815;DHT22;9031;50.974;11.330;2023-05-19T04:44:05;7.60;99.90
17815;DHT22;9031;50.974;11.330;2023-05-19T04:46:33;8.00;99.90
17815;DHT22;9031;50.974;11.330;2023-05-19T04:48:58;8.10;99.90
17815;DHT22;9031;50.974;11.330;2023-05-19T04:51:25;8.10;99.90
17815;DHT22;9031;50.974;11.330;2023-05-19T04:53:56;8.00;99.90
17815;DHT22;9031;50.974;11.330;2023-05-19T04:56:21;7.90;99.90
17815;DHT22;9031;50.974;11.330;2023-05-19T04:58:48;8.00;99.90
17815;DHT22;9031;50.974;11.330;2023-05-19T05:01:13;7.80;99.90
17815;DHT22;9031;50.974;11.330;2023-05-19T05:03:40;7.80;99.90
17815;DHT22;9031;50.974;11.330;2023-05-19T05:06:06;8.10;99.90
17815;DHT22;9031;50.974;11.330;2023-05-19T05:08:32;8.40;99.90
17815;DHT22;9031;50.974;11.330;2023-05-19T05:10:57;8.70;99.90
17815;DHT22;9031;50.974;11.330;2023-05-19T05:13:23;8.70;99.90
17815;DHT22;9031;50.974;11.330;2023-05-19T05:15:50;8.70;99.90
17815;DHT22;9031;50.974;11.330;2023-05-19T05:18:18;8.80;99.90
17815;DHT22;9031;50.974;11.330;2023-05-19T05:20:45;9.00;99.90
17815;DHT22;9031;50.974;11.330;2023-05-19T05:23:11;9.20;99.90
17815;DHT22;9031;50.974;11.330;2023-05-19T05:25:39;9.20;99.90
17815;DHT22;9031;50.974;11.330;2023-05-19T05:28:05;9.10;99.90
17815;DHT22;9031;50.974;11.330;2023-05-19T05:30:32;9.00;99.90
17815;DHT22;9031;50.974;11.330;2023-05-19T05:32:58;9.10;99.90
17815;DHT22;9031;50.974;11.330;2023-05-19T05:35:24;9.20;99.90
17815;DHT22;9031;50.974;11.330;2023-05-19T05:37:49;9.30;99.90
17815;DHT22;9031;50.974;11.330;2023-05-19T05:40:15;9.60;99.90
17815;DHT22;9031;50.974;11.330;2023-05-19T05:42:42;9.80;99.90
17815;DHT22;9031;50.974;11.330;2023-05-19T05:45:08;9.80;99.90
17815;DHT22;9031;50.974;11.330;2023-05-19T05:47:33;10.20;99.90
17815;DHT22;9031;50.974;11.330;2023-05-19T05:50:03;10.50;99.90
17815;DHT22;9031;50.974;11.330;2023-05-19T05:52:29;10.70;99.90
17815;DHT22;9031;50.974;11.330;2023-05-19T05:54:55;10.90;99.90
17815;DHT22;9031;50.974;11.330;2023-05-19T05:57:21;10.90;99.90
17815;DHT22;9031;50.974;11.330;2023-05-19T05:59:47;11.10;99.90
17815;DHT22;9031;50.974;11.330;2023-05-19T06:02:12;11.40;99.90
17815;DHT22;9031;50.974;11.330;2023-05-19T06:04:38;11.70;99.90
17815;DHT22;9031;50.974;11.330;2023-05-19T06:07:03;11.80;99.90
17815;DHT22;9031;50.974;11.330;2023-05-19T06:09:29;12.00;99.90
17815;DHT22;9031;50.974;11.330;2023-05-19T06:11:57;12.10;99.90
17815;DHT22;9031;50.974;11.330;2023-05-19T06:14:24;12.00;99.90
17815;DHT22;9031;50.974;11.330;2023-05-19T06:16:50;12.20;99.90
17815;DHT22;9031;50.974;11.330;2023-05-19T06:19:16;12.10;99.90
17815;DHT22;9031;50.974;11.330;2023-05-19T06:21:42;11.80;99.90
17815;DHT22;9031;50.974;11.330;2023-05-19T06:24:07;11.60;99.90
17815;DHT22;9031;50.974;11.330;2023-05-19T06:26:33;11.50;99.90
17815;DHT22;9031;50.974;11.330;2023-05-19T06:28:58;11.40;99.90
17815;DHT22;9031;50.974;11.330;2023-05-19T06:31:24;11.20;99.90
17815;DHT22;9031;50.974;11.330;2023-05-19T06:33:51;11.20;99.90
17815;DHT22;9031;50.974;11.330;2023-05-19T06:36:16;11.40;99.90
17815;DHT22;9031;50.974;11.330;2023-05-19T06:38:42;11.60;99.90
17815;DHT22;9031;50.974;11.330;2023-05-19T06:41:07;12.20;99.90
17815;DHT22;9031;50.974;11.330;2023-05-19T06:43:33;12.60;99.20
17815;DHT22;9031;50.974;11.330;2023-05-19T06:45:58;12.80;98.70
17815;DHT22;9031;50.974;11.330;2023-05-19T06:48:24;13.10;98.50
17815;DHT22;9031;50.974;11.330;2023-05-19T06:50:49;13.10;97.90
17815;DHT22;9031;50.974;11.330;2023-05-19T06:53:17;13.10;98.30
17815;DHT22;9031;50.974;11.330;2023-05-19T06:55:43;13.00;98.30
17815;DHT22;9031;50.974;11.330;2023-05-19T06:58:09;12.90;98.50
17815;DHT22;9031;50.974;11.330;2023-05-19T07:00:34;13.00;98.30
17815;DHT22;9031;50.974;11.330;2023-05-19T07:03:00;13.00;98.80
17815;DHT22;9031;50.974;11.330;2023-05-19T07:05:26;12.90;98.50
17815;DHT22;9031;50.974;11.330;2023-05-19T07:07:52;13.00;98.30
17815;DHT22;9031;50.974;11.330;2023-05-19T07:10:17;12.90;98.70
17815;DHT22;9031;50.974;11.330;2023-05-19T07:12:43;13.00;98.80
17815;DHT22;9031;50.974;11.330;2023-05-19T07:15:08;13.00;98.60
17815;DHT22;9031;50.974;11.330;2023-05-19T07:17:34;13.00;98.60
17815;DHT22;9031;50.974;11.330;2023-05-19T07:20:00;12.90;98.50
17815;DHT22;9031;50.974;11.330;2023-05-19T07:22:26;13.30;98.00
17815;DHT22;9031;50.974;11.330;2023-05-19T07:24:51;12.90;98.70
17815;DHT22;9031;50.974;11.330;2023-05-19T07:27:17;13.60;97.80
17815;DHT22;9031;50.974;11.330;2023-05-19T07:29:42;14.00;96.60
17815;DHT22;9031;50.974;11.330;2023-05-19T07:32:08;14.20;96.40
17815;DHT22;9031;50.974;11.330;2023-05-19T07:34:33;14.30;96.20
17815;DHT22;9031;50.974;11.330;2023-05-19T07:36:59;14.10;96.40
17815;DHT22;9031;50.974;11.330;2023-05-19T07:39:24;14.20;96.30
17815;DHT22;9031;50.974;11.330;2023-05-19T07:41:54;14.30;96.40
17815;DHT22;9031;50.974;11.330;2023-05-19T07:44:20;14.40;96.00
17815;DHT22;9031;50.974;11.330;2023-05-19T07:46:45;14.40;96.00
17815;DHT22;9031;50.974;11.330;2023-05-19T07:49:11;14.70;95.90
17815;DHT22;9031;50.974;11.330;2023-05-19T07:51:36;14.90;95.60
17815;DHT22;9031;50.974;11.330;2023-05-19T07:54:02;15.30;95.40
17815;DHT22;9031;50.974;11.330;2023-05-19T07:56:27;15.80;94.80
17815;DHT22;9031;50.974;11.330;2023-05-19T07:58:53;16.50;93.70
17815;DHT22;9031;50.974;11.330;2023-05-19T08:01:19;16.70;92.80
17815;DHT22;9031;50.974;11.330;2023-05-19T08:03:44;16.60;93.30
17815;DHT22;9031;50.974;11.330;2023-05-19T08:06:10;17.00;92.50
17815;DHT22;9031;50.974;11.330;2023-05-19T08:08:35;16.50;93.00
17815;DHT22;9031;50.974;11.330;2023-05-19T08:11:02;16.20;93.20
17815;DHT22;9031;50.974;11.330;2023-05-19T08:13:28;16.40;92.70
17815;DHT22;9031;50.974;11.330;2023-05-19T08:15:55;16.30;92.70
17815;DHT22;9031;50.974;11.330;2023-05-19T08:18:24;16.70;92.50
17815;DHT22;9031;50.974;11.330;2023-05-19T08:20:50;16.70;92.40
17815;DHT22;9031;50.974;11.330;2023-05-19T08:23:15;16.90;91.70
17815;DHT22;9031;50.974;11.330;2023-05-19T08:25:42;17.00;92.10
17815;DHT22;9031;50.974;11.330;2023-05-19T08:28:07;17.50;91.60
17815;DHT22;9031;50.974;11.330;2023-05-19T08:30:33;17.40;90.90
17815;DHT22;9031;50.974;11.330;2023-05-19T08:32:58;17.20;90.90
17815;DHT22;9031;50.974;11.330;2023-05-19T08:35:24;17.10;91.50
17815;DHT22;9031;50.974;11.330;2023-05-19T08:37:50;17.30;91.20
17815;DHT22;9031;50.974;11.330;2023-05-19T08:40:16;17.20;91.30
17815;DHT22;9031;50.974;11.330;2023-05-19T08:42:46;17.80;90.80
17815;DHT22;9031;50.974;11.330;2023-05-19T08:45:12;17.60;90.30
17815;DHT22;9031;50.974;11.330;2023-05-19T08:47:41;17.00;89.60
17815;DHT22;9031;50.974;11.330;2023-05-19T08:50:10;16.70;91.10
17815;DHT22;9031;50.974;11.330;2023-05-19T08:52:49;16.60;91.80
17815;DHT22;9031;50.974;11.330;2023-05-19T08:58:11;17.20;89.70
17815;DHT22;9031;50.974;11.330;2023-05-19T09:00:37;17.10;89.90
17815;DHT22;9031;50.974;11.330;2023-05-19T09:03:03;16.80;90.80
17815;DHT22;9031;50.974;11.330;2023-05-19T09:05:29;17.00;90.70
17815;DHT22;9031;50.974;11.330;2023-05-19T09:07:56;17.10;90.40
17815;DHT22;9031;50.974;11.330;2023-05-19T09:10:22;17.50;89.70
17815;DHT22;9031;50.974;11.330;2023-05-19T09:12:47;17.20;89.70
17815;DHT22;9031;50.974;11.330;2023-05-19T09:15:18;17.40;89.60
17815;DHT22;9031;50.974;11.330;2023-05-19T09:17:45;17.60;89.90
17815;DHT22;9031;50.974;11.330;2023-05-19T09:20:12;17.80;89.50
17815;DHT22;9031;50.974;11.330;2023-05-19T09:22:42;18.00;89.10
17815;DHT22;9031;50.974;11.330;2023-05-19T09:25:21;17.70;88.40
17815;DHT22;9031;50.974;11.330;2023-05-19T09:27:46;17.40;89.80
17815;DHT22;9031;50.974;11.330;2023-05-19T09:30:14;17.40;90.10
17815;DHT22;9031;50.974;11.330;2023-05-19T09:32:40;17.50;89.00
17815;DHT22;9031;50.974;11.330;2023-05-19T09:35:06;18.10;88.30
17815;DHT22;9031;50.974;11.330;2023-05-19T09:37:32;18.00;87.40
17815;DHT22;9031;50.974;11.330;2023-05-19T09:39:58;18.50;85.90
17815;DHT22;9031;50.974;11.330;2023-05-19T09:42:27;18.40;84.40
17815;DHT22;9031;50.974;11.330;2023-05-19T09:45:01;17.70;86.90
17815;DHT22;9031;50.974;11.330;2023-05-19T09:47:33;18.30;85.20
17815;DHT22;9031;50.974;11.330;2023-05-19T09:49:58;18.30;82.70
17815;DHT22;9031;50.974;11.330;2023-05-19T09:52:24;18.80;82.30
17815;DHT22;9031;50.974;11.330;2023-05-19T09:54:50;19.30;80.70
17815;DHT22;9031;50.974;11.330;2023-05-19T09:57:16;19.10;81.10
17815;DHT22;9031;50.974;11.330;2023-05-19T09:59:42;19.50;78.90
17815;DHT22;9031;50.974;11.330;2023-05-19T10:02:14;19.40;77.00
17815;DHT22;9031;50.974;11.330;2023-05-19T10:04:41;19.60;76.90
17815;DHT22;9031;50.974;11.330;2023-05-19T10:07:07;19.80;74.10
17815;DHT22;9031;50.974;11.330;2023-05-19T10:09:35;20.50;71.20
17815;DHT22;9031;50.974;11.330;2023-05-19T10:12:02;20.10;69.40
17815;DHT22;9031;50.974;11.330;2023-05-19T10:14:28;19.50;71.10
17815;DHT22;9031;50.974;11.330;2023-05-19T10:16:56;20.30;69.90
17815;DHT22;9031;50.974;11.330;2023-05-19T10:19:24;20.90;67.90
17815;DHT22;9031;50.974;11.330;2023-05-19T10:21:50;21.00;67.20
17815;DHT22;9031;50.974;11.330;2023-05-19T10:24:16;21.40;64.10
17815;DHT22;9031;50.974;11.330;2023-05-19T10:26:55;21.00;65.40
17815;DHT22;9031;50.974;11.330;2023-05-19T10:29:27;21.30;63.40
17815;DHT22;9031;50.974;11.330;2023-05-19T10:31:55;21.70;63.10
17815;DHT22;9031;50.974;11.330;2023-05-19T10:40:40;22.40;59.30
17815;DHT22;9031;50.974;11.330;2023-05-19T10:43:20;22.50;59.40
17815;DHT22;9031;50.974;11.330;2023-05-19T10:45:53;22.90;58.70
17815;DHT22;9031;50.974;11.330;2023-05-19T10:48:20;24.60;56.40
17815;DHT22;9031;50.974;11.330;2023-05-19T10:50:47;25.70;52.60
17815;DHT22;9031;50.974;11.330;2023-05-19T10:53:16;22.90;54.10
17815;DHT22;9031;50.974;11.330;2023-05-19T10:55:46;20.50;60.20
17815;DHT22;9031;50.974;11.330;2023-05-19T10:58:14;19.60;64.50
17815;DHT22;9031;50.974;11.330;2023-05-19T11:00:39;19.50;64.00
17815;DHT22;9031;50.974;11.330;2023-05-19T11:03:15;19.40;64.40
17815;DHT22;9031;50.974;11.330;2023-05-19T11:05:41;19.70;62.80
17815;DHT22;9031;50.974;11.330;2023-05-19T11:08:10;19.80;63.40
17815;DHT22;9031;50.974;11.330;2023-05-19T11:10:36;20.20;62.40
17815;DHT22;9031;50.974;11.330;2023-05-19T11:13:03;20.90;60.70
17815;DHT22;9031;50.974;11.330;2023-05-19T11:15:33;21.00;59.70
17815;DHT22;9031;50.974;11.330;2023-05-19T11:18:00;21.60;57.60
17815;DHT22;9031;50.974;11.330;2023-05-19T11:20:28;21.90;56.80
17815;DHT22;9031;50.974;11.330;2023-05-19T11:23:08;21.70;56.50
17815;DHT22;9031;50.974;11.330;2023-05-19T11:28:06;24.90;49.90
17815;DHT22;9031;50.974;11.330;2023-05-19T11:30:32;26.60;46.20
17815;DHT22;9031;50.974;11.330;2023-05-19T11:32:57;26.10;45.80
17815;DHT22;9031;50.974;11.330;2023-05-19T11:35:23;25.40;47.70
17815;DHT22;9031;50.974;11.330;2023-05-19T11:37:53;25.30;48.20
17815;DHT22;9031;50.974;11.330;2023-05-19T11:40:20;25.60;48.40
17815;DHT22;9031;50.974;11.330;2023-05-19T11:42:45;24.10;49.60
17815;DHT22;9031;50.974;11.330;2023-05-19T11:45:11;22.40;54.20
17815;DHT22;9031;50.974;11.330;2023-05-19T11:47:37;22.60;53.60
17815;DHT22;9031;50.974;11.330;2023-05-19T11:50:03;23.60;52.70
17815;DHT22;9031;50.974;11.330;2023-05-19T11:52:29;23.60;51.60
17815;DHT22;9031;50.974;11.330;2023-05-19T11:54:58;22.30;54.10
17815;DHT22;9031;50.974;11.330;2023-05-19T11:57:25;22.80;53.40
17815;DHT22;9031;50.974;11.330;2023-05-19T11:59:51;22.70;53.30
17815;DHT22;9031;50.974;11.330;2023-05-19T12:02:24;22.70;52.90
17815;DHT22;9031;50.974;11.330;2023-05-19T12:04:51;23.00;51.80
17815;DHT22;9031;50.974;11.330;2023-05-19T12:07:19;23.20;49.40
17815;DHT22;9031;50.974;11.330;2023-05-19T12:09:45;23.40;49.40
17815;DHT22;9031;50.974;11.330;2023-05-19T12:12:18;23.70;49.80
17815;DHT22;9031;50.974;11.330;2023-05-19T12:14:49;23.30;50.60
17815;DHT22;9031;50.974;11.330;2023-05-19T12:17:17;23.70;50.80
17815;DHT22;9031;50.974;11.330;2023-05-19T12:19:45;23.90;51.10
17815;DHT22;9031;50.974;11.330;2023-05-19T12:22:11;24.40;49.30
17815;DHT22;9031;50.974;11.330;2023-05-19T12:24:37;23.60;47.40
17815;DHT22;9031;50.974;11.330;2023-05-19T12:29:42;22.20;47.90
17815;DHT22;9031;50.974;11.330;2023-05-19T12:32:13;21.90;49.50
17815;DHT22;9031;50.974;11.330;2023-05-19T12:34:39;22.90;48.50
17815;DHT22;9031;50.974;11.330;2023-05-19T12:37:05;23.10;48.40
17815;DHT22;9031;50.974;11.330;2023-05-19T12:39:31;22.90;48.40
17815;DHT22;9031;50.974;11.330;2023-05-19T12:42:09;22.30;49.90
17815;DHT22;9031;50.974;11.330;2023-05-19T12:44:43;22.40;49.20
17815;DHT22;9031;50.974;11.330;2023-05-19T12:47:11;23.10;47.80
17815;DHT22;9031;50.974;11.330;2023-05-19T12:49:56;23.40;48.50
17815;DHT22;9031;50.974;11.330;2023-05-19T12:52:27;23.30;49.90
17815;DHT22;9031;50.974;11.330;2023-05-19T12:55:00;22.10;52.10
17815;DHT22;9031;50.974;11.330;2023-05-19T12:57:27;21.70;54.00
17815;DHT22;9031;50.974;11.330;2023-05-19T13:00:05;21.50;54.30
17815;DHT22;9031;50.974;11.330;2023-05-19T13:02:35;21.30;55.00
17815;DHT22;9031;50.974;11.330;2023-05-19T13:05:18;22.10;54.00
17815;DHT22;9031;50.974;11.330;2023-05-19T13:10:24;23.30;52.30
17815;DHT22;9031;50.974;11.330;2023-05-19T13:12:54;23.90;51.80
17815;DHT22;9031;50.974;11.330;2023-05-19T13:15:25;24.40;50.50
17815;DHT22;9031;50.974;11.330;2023-05-19T13:17:52;25.20;48.90
17815;DHT22;9031;50.974;11.330;2023-05-19T13:20:18;25.20;49.20
17815;DHT22;9031;50.974;11.330;2023-05-19T13:22:43;25.60;48.60
17815;DHT22;9031;50.974;11.330;2023-05-19T13:25:09;25.90;46.80
17815;DHT22;9031;50.974;11.330;2023-05-19T13:27:35;23.70;50.30
17815;DHT22;9031;50.974;11.330;2023-05-19T13:30:01;24.10;51.80
17815;DHT22;9031;50.974;11.330;2023-05-19T13:32:26;25.70;48.90
17815;DHT22;9031;50.974;11.330;2023-05-19T13:34:52;24.60;48.10
17815;DHT22;9031;50.974;11.330;2023-05-19T13:37:17;24.60;48.70
17815;DHT22;9031;50.974;11.330;2023-05-19T13:39:43;24.10;48.40
17815;DHT22;9031;50.974;11.330;2023-05-19T13:42:08;23.10;51.20
17815;DHT22;9031;50.974;11.330;2023-05-19T13:44:34;24.60;50.50
17815;DHT22;9031;50.974;11.330;2023-05-19T13:46:59;25.40;48.80
17815;DHT22;9031;50.974;11.330;2023-05-19T13:49:25;24.20;51.40
17815;DHT22;9031;50.974;11.330;2023-05-19T13:51:54;24.20;50.20
17815;DHT22;9031;50.974;11.330;2023-05-19T13:54:19;23.10;52.90
17815;DHT22;9031;50.974;11.330;2023-05-19T13:56:45;23.50;52.40
17815;DHT22;9031;50.974;11.330;2023-05-19T13:59:13;25.10;50.80
17815;DHT22;9031;50.974;11.330;2023-05-19T14:01:38;25.50;49.30
17815;DHT22;9031;50.974;11.330;2023-05-19T14:04:04;27.00;47.00
17815;DHT22;9031;50.974;11.330;2023-05-19T14:06:30;26.40;47.60
17815;DHT22;9031;50.974;11.330;2023-05-19T14:08:55;26.60;47.00
17815;DHT22;9031;50.974;11.330;2023-05-19T14:11:21;28.50;45.00
17815;DHT22;9031;50.974;11.330;2023-05-19T14:13:49;27.10;44.80
17815;DHT22;9031;50.974;11.330;2023-05-19T14:16:16;25.10;47.10
17815;DHT22;9031;50.974;11.330;2023-05-19T14:18:41;23.90;50.50
17815;DHT22;9031;50.974;11.330;2023-05-19T14:21:07;24.30;49.30
17815;DHT22;9031;50.974;11.330;2023-05-19T14:23:33;24.40;49.90
17815;DHT22;9031;50.974;11.330;2023-05-19T14:25:59;24.30;50.20
17815;DHT22;9031;50.974;11.330;2023-05-19T14:28:24;24.80;50.30
17815;DHT22;9031;50.974;11.330;2023-05-19T14:30:50;24.20;50.80
17815;DHT22;9031;50.974;11.330;2023-05-19T14:33:16;24.50;49.50
17815;DHT22;9031;50.974;11.330;2023-05-19T14:35:42;25.70;48.00
17815;DHT22;9031;50.974;11.330;2023-05-19T14:38:07;26.20;47.20
17815;DHT22;9031;50.974;11.330;2023-05-19T14:40:35;25.90;48.00
17815;DHT22;9031;50.974;11.330;2023-05-19T14:43:01;25.30;46.60
17815;DHT22;9031;50.974;11.330;2023-05-19T14:45:27;24.20;48.90
17815;DHT22;9031;50.974;11.330;2023-05-19T14:47:53;24.50;49.20
17815;DHT22;9031;50.974;11.330;2023-05-19T14:50:18;25.50;48.00
17815;DHT22;9031;50.974;11.330;2023-05-19T14:52:44;26.20;46.90
17815;DHT22;9031;50.974;11.330;2023-05-19T14:55:09;26.40;47.60
17815;DHT22;9031;50.974;11.330;2023-05-19T14:57:35;26.40;45.90
17815;DHT22;9031;50.974;11.330;2023-05-19T15:00:00;25.30;47.40
17815;DHT22;9031;50.974;11.330;2023-05-19T15:02:26;23.90;49.60
17815;DHT22;9031;50.974;11.330;2023-05-19T15:04:51;23.10;52.10
17815;DHT22;9031;50.974;11.330;2023-05-19T15:07:17;22.60;53.00
17815;DHT22;9031;50.974;11.330;2023-05-19T15:09:42;21.30;54.60
17815;DHT22;9031;50.974;11.330;2023-05-19T15:12:08;20.60;57.10
17815;DHT22;9031;50.974;11.330;2023-05-19T15:14:33;20.50;58.20
17815;DHT22;9031;50.974;11.330;2023-05-19T15:16:59;21.10;57.60
17815;DHT22;9031;50.974;11.330;2023-05-19T15:19:24;22.60;55.50
17815;DHT22;9031;50.974;11.330;2023-05-19T15:21:50;22.40;54.90
17815;DHT22;9031;50.974;11.330;2023-05-19T15:24:15;21.50;56.00
17815;DHT22;9031;50.974;11.330;2023-05-19T15:26:41;20.80;57.00
17815;DHT22;9031;50.974;11.330;2023-05-19T15:29:07;21.30;57.40
17815;DHT22;9031;50.974;11.330;2023-05-19T15:31:32;22.60;53.40
17815;DHT22;9031;50.974;11.330;2023-05-19T15:33:58;23.40;50.00
17815;DHT22;9031;50.974;11.330;2023-05-19T15:36:23;23.90;49.20
17815;DHT22;9031;50.974;11.330;2023-05-19T15:38:49;23.90;49.00
17815;DHT22;9031;50.974;11.330;2023-05-19T15:41:14;23.90;49.30
17815;DHT22;9031;50.974;11.330;2023-05-19T15:43:40;24.60;48.80
17815;DHT22;9031;50.974;11.330;2023-05-19T15:46:06;23.90;49.40
17815;DHT22;9031;50.974;11.330;2023-05-19T15:48:31;22.80;51.10
17815;DHT22;9031;50.974;11.330;2023-05-19T15:50:57;22.10;52.80
17815;DHT22;9031;50.974;11.330;2023-05-19T15:53:24;21.80;53.50
17815;DHT22;9031;50.974;11.330;2023-05-19T15:55:49;21.30;55.30
17815;DHT22;9031;50.974;11.330;2023-05-19T15:58:16;21.00;55.60
17815;DHT22;9031;50.974;11.330;2023-05-19T16:00:42;20.80;56.30
17815;DHT22;9031;50.974;11.330;2023-05-19T16:03:08;20.40;57.30